sensor_id;sensor_type;location;lat;lon;timestamp;temperature;humidity
25280;DHT22;13225;47.804;12.116;2023-01-23T00:02:17;-3.10;99.90
25280;DHT22;13225;47.804;12.116;2023-01-23T00:04:43;-3.00;99.90
25280;DHT22;13225;47.804;12.116;2023-01-23T00:07:09;-3.00;99.90
25280;DHT22;13225;47.804;12.116;2023-01-23T00:09:34;-3.00;99.90
25280;DHT22;13225;47.804;12.116;2023-01-23T00:12:00;-3.00;99.90
25280;DHT22;13225;47.804;12.116;2023-01-23T00:14:26;-3.00;99.90
25280;DHT22;13225;47.804;12.116;2023-01-23T00:16:51;-3.20;99.90
25280;DHT22;13225;47.804;12.116;2023-01-23T00:19:18;-3.30;99.90
25280;DHT22;13225;47.804;12.116;2023-01-23T00:21:44;-3.20;99.90
25280;DHT22;13225;47.804;12.116;2023-01-23T00:24:10;-3.20;99.90
25280;DHT22;13225;47.804;12.116;2023-01-23T00:26:36;-3.20;99.90
25280;DHT22;13225;47.804;12.116;2023-01-23T00:29:02;-3.20;99.90
25280;DHT22;13225;47.804;12.116;2023-01-23T00:31:31;-3.20;99.90
25280;DHT22;13225;47.804;12.116;2023-01-23T00:33:59;-3.30;99.90
25280;DHT22;13225;47.804;12.116;2023-01-23T00:36:31;-3.40;99.90
25280;DHT22;13225;47.804;12.116;2023-01-23T00:38:56;-3.40;99.90
25280;DHT22;13225;47.804;12.116;2023-01-23T00:41:24;-3.50;99.90
25280;DHT22;13225;47.804;12.116;2023-01-23T00:43:50;-3.50;99.90
25280;DHT22;13225;47.804;12.116;2023-01-23T00:46:20;-3.40;99.90
25280;DHT22;13225;47.804;12.116;2023-01-23T00:48:46;-3.40;99.90
25280;DHT22;13225;47.804;12.116;2023-01-23T00:51:12;-3.40;99.90
25280;DHT22;13225;47.804;12.116;2023-01-23T00:53:38;-3.40;99.90
25280;DHT22;13225;47.804;12.116;2023-01-23T00:56:03;-3.40;99.90
25280;DHT22;13225;47.804;12.116;2023-01-23T00:58:29;-3.50;99.90
25280;DHT22;13225;47.804;12.116;2023-01-23T01:00:55;-3.50;99.90
25280;DHT22;13225;47.804;12.116;2023-01-23T01:03:20;-3.60;99.90
25280;DHT22;13225;47.804;12.116;2023-01-23T01:05:46;-3.60;99.90
25280;DHT22;13225;47.804;12.116;2023-01-23T01:08:12;-3.70;99.90
25280;DHT22;13225;47.804;12.116;2023-01-23T01:10:41;-3.70;99.90
25280;DHT22;13225;47.804;12.116;2023-01-23T01:13:08;-3.80;99.90
25280;DHT22;13225;47.804;12.116;2023-01-23T01:15:34;-3.90;99.90
25280;DHT22;13225;47.804;12.116;2023-01-23T01:18:00;-4.00;99.90
25280;DHT22;13225;47.804;12.116;2023-01-23T01:20:27;-4.00;99.90
25280;DHT22;13225;47.804;12.116;2023-01-23T01:22:55;-4.00;99.90
25280;DHT22;13225;47.804;12.116;2023-01-23T01:25:21;-3.80;99.90
25280;DHT22;13225;47.804;12.116;2023-01-23T01:27:47;-3.70;99.90
25280;DHT22;13225;47.804;12.116;2023-01-23T01:30:13;-3.70;99.90
25280;DHT22;13225;47.804;12.116;2023-01-23T01:32:40;-3.70;99.90
25280;DHT22;13225;47.804;12.116;2023-01-23T01:35:07;-3.70;99.90
25280;DHT22;13225;47.804;12.116;2023-01-23T01:37:38;-3.70;99.90
25280;DHT22;13225;47.804;12.116;2023-01-23T01:40:05;-3.70;99.90
25280;DHT22;13225;47.804;12.116;2023-01-23T01:42:47;-3.60;99.90
25280;DHT22;13225;47.804;12.116;2023-01-23T01:48:18;-3.50;99.90
25280;DHT22;13225;47.804;12.116;2023-01-23T01:50:46;-3.50;99.90
25280;DHT22;13225;47.804;12.116;2023-01-23T01:53:12;-3.50;99.90
25280;DHT22;13225;47.804;12.116;2023-01-23T01:55:38;-3.50;99.90
25280;DHT22;13225;47.804;12.116;2023-01-23T01:58:04;-3.60;99.90
25280;DHT22;13225;47.804;12.116;2023-01-23T02:00:30;-3.70;99.90
25280;DHT22;13225;47.804;12.116;2023-01-23T02:03:00;-3.70;99.90
25280;DHT22;13225;47.804;12.116;2023-01-23T02:05:37;-3.80;99.90
25280;DHT22;13225;47.804;12.116;2023-01-23T02:10:57;-3.90;99.90
25280;DHT22;13225;47.804;12.116;2023-01-23T02:13:32;-3.80;99.90
25280;DHT22;13225;47.804;12.116;2023-01-23T02:16:07;-3.90;99.90
25280;DHT22;13225;47.804;12.116;2023-01-23T02:18:36;-3.90;99.90
25280;DHT22;13225;47.804;12.116;2023-01-23T02:21:06;-3.90;99.90
25280;DHT22;13225;47.804;12.116;2023-01-23T02:26:17;-4.00;99.90
25280;DHT22;13225;47.804;12.116;2023-01-23T02:28:46;-4.00;99.90
25280;DHT22;13225;47.804;12.116;2023-01-23T02:31:13;-4.10;99.90
25280;DHT22;13225;47.804;12.116;2023-01-23T02:36:05;-4.00;99.90
25280;DHT22;13225;47.804;12.116;2023-01-23T02:38:36;-3.90;99.90
25280;DHT22;13225;47.804;12.116;2023-01-23T02:41:06;-3.90;99.90
25280;DHT22;13225;47.804;12.116;2023-01-23T02:43:36;-3.80;99.90
25280;DHT22;13225;47.804;12.116;2023-01-23T02:46:08;-3.90;99.90
25280;DHT22;13225;47.804;12.116;2023-01-23T02:48:35;-3.90;99.90
25280;DHT22;13225;47.804;12.116;2023-01-23T02:51:01;-3.90;99.90
25280;DHT22;13225;47.804;12.116;2023-01-23T02:53:27;-3.90;99.90
25280;DHT22;13225;47.804;12.116;2023-01-23T02:55:53;-3.80;99.90
25280;DHT22;13225;47.804;12.116;2023-01-23T02:58:20;-3.70;99.90
25280;DHT22;13225;47.804;12.116;2023-01-23T03:01:05;-3.80;99.90
25280;DHT22;13225;47.804;12.116;2023-01-23T03:03:30;-3.80;99.90
25280;DHT22;13225;47.804;12.116;2023-01-23T03:05:56;-3.90;99.90
25280;DHT22;13225;47.804;12.116;2023-01-23T03:08:23;-3.80;99.90
25280;DHT22;13225;47.804;12.116;2023-01-23T03:10:59;-3.70;99.90
25280;DHT22;13225;47.804;12.116;2023-01-23T03:13:25;-3.70;99.90
25280;DHT22;13225;47.804;12.116;2023-01-23T03:15:51;-3.70;99.90
25280;DHT22;13225;47.804;12.116;2023-01-23T03:18:20;-3.60;99.90
25280;DHT22;13225;47.804;12.116;2023-01-23T03:20:46;-3.60;99.90
25280;DHT22;13225;47.804;12.116;2023-01-23T03:23:11;-3.60;99.90
25280;DHT22;13225;47.804;12.116;2023-01-23T03:25:42;-3.60;99.90
25280;DHT22;13225;47.804;12.116;2023-01-23T03:28:09;-3.60;99.90
25280;DHT22;13225;47.804;12.116;2023-01-23T03:30:58;-3.60;99.90
25280;DHT22;13225;47.804;12.116;2023-01-23T03:33:23;-3.60;99.90
25280;DHT22;13225;47.804;12.116;2023-01-23T03:35:49;-3.60;99.90
25280;DHT22;13225;47.804;12.116;2023-01-23T03:38:15;-3.60;99.90
25280;DHT22;13225;47.804;12.116;2023-01-23T03:40:44;-3.60;99.90
25280;DHT22;13225;47.804;12.116;2023-01-23T03:43:31;-3.60;99.90
25280;DHT22;13225;47.804;12.116;2023-01-23T03:45:58;-3.50;99.90
25280;DHT22;13225;47.804;12.116;2023-01-23T03:48:23;-3.60;99.90
25280;DHT22;13225;47.804;12.116;2023-01-23T03:50:49;-3.50;99.90
25280;DHT22;13225;47.804;12.116;2023-01-23T03:53:14;-3.60;99.90
25280;DHT22;13225;47.804;12.116;2023-01-23T03:55:40;-3.60;99.90
25280;DHT22;13225;47.804;12.116;2023-01-23T03:58:05;-3.50;99.90
25280;DHT22;13225;47.804;12.116;2023-01-23T04:00:31;-3.40;99.90
25280;DHT22;13225;47.804;12.116;2023-01-23T04:02:56;-3.40;99.90
25280;DHT22;13225;47.804;12.116;2023-01-23T04:05:22;-3.30;99.90
25280;DHT22;13225;47.804;12.116;2023-01-23T04:07:47;-3.30;99.90
25280;DHT22;13225;47.804;12.116;2023-01-23T04:10:14;-3.30;99.90
25280;DHT22;13225;47.804;12.116;2023-01-23T04:12:42;-3.30;99.90
25280;DHT22;13225;47.804;12.116;2023-01-23T04:15:08;-3.40;99.90
25280;DHT22;13225;47.804;12.116;2023-01-23T04:17:34;-3.40;99.90
25280;DHT22;13225;47.804;12.116;2023-01-23T04:19:59;-3.40;99.90
25280;DHT22;13225;47.804;12.116;2023-01-23T04:22:25;-3.40;99.90
25280;DHT22;13225;47.804;12.116;2023-01-23T04:24:50;-3.50;99.90
25280;DHT22;13225;47.804;12.116;2023-01-23T04:27:16;-3.60;99.90
25280;DHT22;13225;47.804;12.116;2023-01-23T04:29:41;-3.60;99.90
25280;DHT22;13225;47.804;12.116;2023-01-23T04:32:07;-3.60;99.90
25280;DHT22;13225;47.804;12.116;2023-01-23T04:34:34;-3.60;99.90
25280;DHT22;13225;47.804;12.116;2023-01-23T04:36:59;-3.60;99.90
25280;DHT22;13225;47.804;12.116;2023-01-23T04:39:25;-3.40;99.90
25280;DHT22;13225;47.804;12.116;2023-01-23T04:41:50;-3.40;99.90
25280;DHT22;13225;47.804;12.116;2023-01-23T04:44:16;-3.40;99.90
25280;DHT22;13225;47.804;12.116;2023-01-23T04:46:49;-3.40;99.90
25280;DHT22;13225;47.804;12.116;2023-01-23T04:49:15;-3.50;99.90
25280;DHT22;13225;47.804;12.116;2023-01-23T04:51:41;-3.50;99.90
25280;DHT22;13225;47.804;12.116;2023-01-23T04:54:09;-3.40;99.90
25280;DHT22;13225;47.804;12.116;2023-01-23T04:56:34;-3.30;99.90
25280;DHT22;13225;47.804;12.116;2023-01-23T04:59:00;-3.30;99.90
25280;DHT22;13225;47.804;12.116;2023-01-23T05:01:25;-3.30;99.90
25280;DHT22;13225;47.804;12.116;2023-01-23T05:03:52;-3.30;99.90
25280;DHT22;13225;47.804;12.116;2023-01-23T05:06:18;-3.20;99.90
25280;DHT22;13225;47.804;12.116;2023-01-23T05:08:44;-3.30;99.90
25280;DHT22;13225;47.804;12.116;2023-01-23T05:11:10;-3.30;99.90
25280;DHT22;13225;47.804;12.116;2023-01-23T05:13:36;-3.20;99.90
25280;DHT22;13225;47.804;12.116;2023-01-23T05:16:01;-3.20;99.90
25280;DHT22;13225;47.804;12.116;2023-01-23T05:18:27;-3.20;99.90
25280;DHT22;13225;47.804;12.116;2023-01-23T05:20:52;-3.20;99.90
25280;DHT22;13225;47.804;12.116;2023-01-23T05:23:18;-3.20;99.90
25280;DHT22;13225;47.804;12.116;2023-01-23T05:25:44;-3.30;99.90
25280;DHT22;13225;47.804;12.116;2023-01-23T05:28:10;-3.40;99.90
25280;DHT22;13225;47.804;12.116;2023-01-23T05:30:36;-3.40;99.90
25280;DHT22;13225;47.804;12.116;2023-01-23T05:33:02;-3.40;99.90
25280;DHT22;13225;47.804;12.116;2023-01-23T05:35:28;-3.30;99.90
25280;DHT22;13225;47.804;12.116;2023-01-23T05:37:53;-3.30;99.90
25280;DHT22;13225;47.804;12.116;2023-01-23T05:40:19;-3.40;99.90
25280;DHT22;13225;47.804;12.116;2023-01-23T05:42:46;-3.40;99.90
25280;DHT22;13225;47.804;12.116;2023-01-23T05:45:12;-3.40;99.90
25280;DHT22;13225;47.804;12.116;2023-01-23T05:47:38;-3.30;99.90
25280;DHT22;13225;47.804;12.116;2023-01-23T05:50:05;-3.30;99.90
25280;DHT22;13225;47.804;12.116;2023-01-23T05:52:33;-3.20;99.90
25280;DHT22;13225;47.804;12.116;2023-01-23T05:54:58;-3.20;99.90
25280;DHT22;13225;47.804;12.116;2023-01-23T05:57:24;-3.20;99.90
25280;DHT22;13225;47.804;12.116;2023-01-23T05:59:50;-3.20;99.90
25280;DHT22;13225;47.804;12.116;2023-01-23T06:02:16;-3.20;99.90
25280;DHT22;13225;47.804;12.116;2023-01-23T06:04:41;-3.30;99.90
25280;DHT22;13225;47.804;12.116;2023-01-23T06:07:14;-3.20;99.90
25280;DHT22;13225;47.804;12.116;2023-01-23T06:09:40;-3.20;99.90
25280;DHT22;13225;47.804;12.116;2023-01-23T06:12:05;-3.00;99.90
25280;DHT22;13225;47.804;12.116;2023-01-23T06:14:31;-3.00;99.90
25280;DHT22;13225;47.804;12.116;2023-01-23T06:16:57;-3.10;99.90
25280;DHT22;13225;47.804;12.116;2023-01-23T06:19:22;-3.10;99.90
25280;DHT22;13225;47.804;12.116;2023-01-23T06:21:48;-3.10;99.90
25280;DHT22;13225;47.804;12.116;2023-01-23T06:24:14;-3.10;99.90
25280;DHT22;13225;47.804;12.116;2023-01-23T06:26:39;-3.10;99.90
25280;DHT22;13225;47.804;12.116;2023-01-23T06:29:05;-3.10;99.90
25280;DHT22;13225;47.804;12.116;2023-01-23T06:31:30;-3.10;99.90
25280;DHT22;13225;47.804;12.116;2023-01-23T06:33:57;-3.20;99.90
25280;DHT22;13225;47.804;12.116;2023-01-23T06:36:23;-3.10;99.90
25280;DHT22;13225;47.804;12.116;2023-01-23T06:38:49;-3.20;99.90
25280;DHT22;13225;47.804;12.116;2023-01-23T06:41:14;-3.20;99.90
25280;DHT22;13225;47.804;12.116;2023-01-23T06:43:40;-3.10;99.90
25280;DHT22;13225;47.804;12.116;2023-01-23T06:46:09;-3.10;99.90
25280;DHT22;13225;47.804;12.116;2023-01-23T06:48:36;-3.00;99.90
25280;DHT22;13225;47.804;12.116;2023-01-23T06:51:03;-3.00;99.90
25280;DHT22;13225;47.804;12.116;2023-01-23T06:53:28;-2.90;99.90
25280;DHT22;13225;47.804;12.116;2023-01-23T06:55:59;-2.90;99.90
25280;DHT22;13225;47.804;12.116;2023-01-23T06:58:25;-2.80;99.90
25280;DHT22;13225;47.804;12.116;2023-01-23T07:00:51;-2.80;99.90
25280;DHT22;13225;47.804;12.116;2023-01-23T07:03:16;-2.80;99.90
25280;DHT22;13225;47.804;12.116;2023-01-23T07:05:42;-2.90;99.90
25280;DHT22;13225;47.804;12.116;2023-01-23T07:08:08;-2.90;99.90
25280;DHT22;13225;47.804;12.116;2023-01-23T07:10:37;-2.90;99.90
25280;DHT22;13225;47.804;12.116;2023-01-23T07:13:06;-2.90;99.90
25280;DHT22;13225;47.804;12.116;2023-01-23T07:15:33;-2.90;99.90
25280;DHT22;13225;47.804;12.116;2023-01-23T07:17:59;-2.90;99.90
25280;DHT22;13225;47.804;12.116;2023-01-23T07:20:25;-2.90;99.90
25280;DHT22;13225;47.804;12.116;2023-01-23T07:22:53;-2.90;99.90
25280;DHT22;13225;47.804;12.116;2023-01-23T07:25:19;-2.90;99.90
25280;DHT22;13225;47.804;12.116;2023-01-23T07:27:44;-2.80;99.90
25280;DHT22;13225;47.804;12.116;2023-01-23T07:30:10;-2.80;99.90
25280;DHT22;13225;47.804;12.116;2023-01-23T07:32:36;-2.90;99.90
25280;DHT22;13225;47.804;12.116;2023-01-23T07:35:02;-2.90;99.90
25280;DHT22;13225;47.804;12.116;2023-01-23T07:37:27;-2.90;99.90
25280;DHT22;13225;47.804;12.116;2023-01-23T07:39:53;-2.80;99.90
25280;DHT22;13225;47.804;12.116;2023-01-23T07:42:19;-2.80;99.90
25280;DHT22;13225;47.804;12.116;2023-01-23T07:44:44;-2.90;99.90
25280;DHT22;13225;47.804;12.116;2023-01-23T07:47:10;-2.90;99.90
25280;DHT22;13225;47.804;12.116;2023-01-23T07:49:35;-2.90;99.90
25280;DHT22;13225;47.804;12.116;2023-01-23T07:52:01;-2.80;99.90
25280;DHT22;13225;47.804;12.116;2023-01-23T07:54:28;-2.80;99.90
25280;DHT22;13225;47.804;12.116;2023-01-23T07:56:54;-2.80;99.90
25280;DHT22;13225;47.804;12.116;2023-01-23T07:59:19;-2.80;99.90
25280;DHT22;13225;47.804;12.116;2023-01-23T08:01:45;-2.70;99.90
25280;DHT22;13225;47.804;12.116;2023-01-23T08:04:11;-2.90;99.90
25280;DHT22;13225;47.804;12.116;2023-01-23T08:06:37;-2.80;99.90
25280;DHT22;13225;47.804;12.116;2023-01-23T08:09:03;-2.80;99.90
25280;DHT22;13225;47.804;12.116;2023-01-23T08:11:28;-2.70;99.90
25280;DHT22;13225;47.804;12.116;2023-01-23T08:13:54;-2.60;99.90
25280;DHT22;13225;47.804;12.116;2023-01-23T08:16:19;-2.60;99.90
25280;DHT22;13225;47.804;12.116;2023-01-23T08:18:45;-2.60;99.90
25280;DHT22;13225;47.804;12.116;2023-01-23T08:21:11;-2.70;99.90
25280;DHT22;13225;47.804;12.116;2023-01-23T08:23:37;-2.70;99.90
25280;DHT22;13225;47.804;12.116;2023-01-23T08:26:05;-2.60;99.90
25280;DHT22;13225;47.804;12.116;2023-01-23T08:28:31;-2.70;99.90
25280;DHT22;13225;47.804;12.116;2023-01-23T08:31:05;-2.70;99.90
25280;DHT22;13225;47.804;12.116;2023-01-23T08:33:31;-2.70;99.90
25280;DHT22;13225;47.804;12.116;2023-01-23T08:35:58;-2.60;99.90
25280;DHT22;13225;47.804;12.116;2023-01-23T08:38:24;-2.50;99.90
25280;DHT22;13225;47.804;12.116;2023-01-23T08:40:51;-2.50;99.90
25280;DHT22;13225;47.804;12.116;2023-01-23T08:43:18;-2.50;99.90
25280;DHT22;13225;47.804;12.116;2023-01-23T08:45:49;-2.50;99.90
25280;DHT22;13225;47.804;12.116;2023-01-23T08:48:15;-2.30;99.90
25280;DHT22;13225;47.804;12.116;2023-01-23T08:50:41;-2.30;99.90
25280;DHT22;13225;47.804;12.116;2023-01-23T08:53:07;-2.10;99.90
25280;DHT22;13225;47.804;12.116;2023-01-23T08:55:33;-2.10;99.90
25280;DHT22;13225;47.804;12.116;2023-01-23T08:58:01;-2.20;99.90
25280;DHT22;13225;47.804;12.116;2023-01-23T09:00:27;-2.20;99.90
25280;DHT22;13225;47.804;12.116;2023-01-23T09:02:52;-2.30;99.90
25280;DHT22;13225;47.804;12.116;2023-01-23T09:05:19;-2.20;99.90
25280;DHT22;13225;47.804;12.116;2023-01-23T09:07:45;-2.20;99.90
25280;DHT22;13225;47.804;12.116;2023-01-23T09:10:11;-2.10;99.90
25280;DHT22;13225;47.804;12.116;2023-01-23T09:12:37;-2.10;99.90
25280;DHT22;13225;47.804;12.116;2023-01-23T09:15:03;-2.10;99.90
25280;DHT22;13225;47.804;12.116;2023-01-23T09:17:29;-1.90;99.90
25280;DHT22;13225;47.804;12.116;2023-01-23T09:19:55;-1.80;99.90
25280;DHT22;13225;47.804;12.116;2023-01-23T09:22:20;-1.80;99.90
25280;DHT22;13225;47.804;12.116;2023-01-23T09:24:46;-1.70;99.90
25280;DHT22;13225;47.804;12.116;2023-01-23T09:27:11;-1.60;99.90
25280;DHT22;13225;47.804;12.116;2023-01-23T09:29:38;-1.60;99.90
25280;DHT22;13225;47.804;12.116;2023-01-23T09:32:04;-1.60;99.90
25280;DHT22;13225;47.804;12.116;2023-01-23T09:34:30;-1.60;99.90
25280;DHT22;13225;47.804;12.116;2023-01-23T09:36:56;-1.60;99.90
25280;DHT22;13225;47.804;12.116;2023-01-23T09:39:21;-1.70;99.90
25280;DHT22;13225;47.804;12.116;2023-01-23T09:41:48;-1.70;99.90
25280;DHT22;13225;47.804;12.116;2023-01-23T09:44:43;-1.70;99.90
25280;DHT22;13225;47.804;12.116;2023-01-23T09:47:14;-1.70;99.90
25280;DHT22;13225;47.804;12.116;2023-01-23T09:49:54;-1.70;99.90
25280;DHT22;13225;47.804;12.116;2023-01-23T09:52:31;-1.80;99.90
25280;DHT22;13225;47.804;12.116;2023-01-23T09:55:21;-1.90;99.90
25280;DHT22;13225;47.804;12.116;2023-01-23T09:57:55;-1.80;99.90
25280;DHT22;13225;47.804;12.116;2023-01-23T10:02:52;-1.40;99.90
25280;DHT22;13225;47.804;12.116;2023-01-23T10:05:23;-1.30;99.90
25280;DHT22;13225;47.804;12.116;2023-01-23T10:13:18;-1.20;99.90
25280;DHT22;13225;47.804;12.116;2023-01-23T10:18:37;-1.00;99.90
25280;DHT22;13225;47.804;12.116;2023-01-23T10:23:57;-1.20;99.90
25280;DHT22;13225;47.804;12.116;2023-01-23T10:26:30;-1.20;99.90
25280;DHT22;13225;47.804;12.116;2023-01-23T10:29:25;-1.00;99.90
25280;DHT22;13225;47.804;12.116;2023-01-23T10:31:55;-0.90;99.90
25280;DHT22;13225;47.804;12.116;2023-01-23T10:34:35;-0.80;99.90
25280;DHT22;13225;47.804;12.116;2023-01-23T10:40:13;-0.80;99.90
25280;DHT22;13225;47.804;12.116;2023-01-23T10:42:39;-0.80;99.90
25280;DHT22;13225;47.804;12.116;2023-01-23T10:45:05;-0.60;99.90
25280;DHT22;13225;47.804;12.116;2023-01-23T10:47:41;-0.40;99.90
25280;DHT22;13225;47.804;12.116;2023-01-23T10:50:08;-0.40;99.90
25280;DHT22;13225;47.804;12.116;2023-01-23T10:53:04;-0.40;99.90
25280;DHT22;13225;47.804;12.116;2023-01-23T10:55:30;-0.40;99.90
25280;DHT22;13225;47.804;12.116;2023-01-23T10:57:58;-0.50;99.90
25280;DHT22;13225;47.804;12.116;2023-01-23T11:00:36;-0.50;99.90
25280;DHT22;13225;47.804;12.116;2023-01-23T11:03:26;-0.60;99.90
25280;DHT22;13225;47.804;12.116;2023-01-23T11:06:05;-0.80;99.90
25280;DHT22;13225;47.804;12.116;2023-01-23T11:08:37;-0.90;99.90
25280;DHT22;13225;47.804;12.116;2023-01-23T11:13:45;-1.00;99.90
25280;DHT22;13225;47.804;12.116;2023-01-23T11:16:14;-0.80;99.90
25280;DHT22;13225;47.804;12.116;2023-01-23T11:18:42;-0.80;99.90
25280;DHT22;13225;47.804;12.116;2023-01-23T11:23:47;-0.60;99.90
25280;DHT22;13225;47.804;12.116;2023-01-23T11:26:33;-0.60;99.90
25280;DHT22;13225;47.804;12.116;2023-01-23T11:28:58;-0.40;99.90
25280;DHT22;13225;47.804;12.116;2023-01-23T11:31:25;-0.10;99.90
25280;DHT22;13225;47.804;12.116;2023-01-23T11:34:12;0.10;99.90
25280;DHT22;13225;47.804;12.116;2023-01-23T11:36:47;0.30;99.90
25280;DHT22;13225;47.804;12.116;2023-01-23T11:42:01;0.30;99.90
25280;DHT22;13225;47.804;12.116;2023-01-23T11:44:27;0.20;99.90
25280;DHT22;13225;47.804;12.116;2023-01-23T11:47:20;0.20;99.90
25280;DHT22;13225;47.804;12.116;2023-01-23T11:52:31;-0.20;99.90
25280;DHT22;13225;47.804;12.116;2023-01-23T12:01:19;-0.80;99.90
25280;DHT22;13225;47.804;12.116;2023-01-23T12:09:13;-0.60;99.90
25280;DHT22;13225;47.804;12.116;2023-01-23T12:26:22;0.00;99.90
25280;DHT22;13225;47.804;12.116;2023-01-23T12:31:41;-0.10;99.90
25280;DHT22;13225;47.804;12.116;2023-01-23T12:34:38;-0.70;99.90
25280;DHT22;13225;47.804;12.116;2023-01-23T12:42:19;-0.40;99.90
25280;DHT22;13225;47.804;12.116;2023-01-23T12:47:36;-0.20;99.90
25280;DHT22;13225;47.804;12.116;2023-01-23T12:53:08;0.00;99.90
25280;DHT22;13225;47.804;12.116;2023-01-23T12:58:38;-0.10;99.90
25280;DHT22;13225;47.804;12.116;2023-01-23T13:12:23;-0.50;99.90
25280;DHT22;13225;47.804;12.116;2023-01-23T13:15:38;-0.60;99.90
25280;DHT22;13225;47.804;12.116;2023-01-23T13:20:20;-1.10;99.90
25280;DHT22;13225;47.804;12.116;2023-01-23T13:23:22;-1.30;99.90
25280;DHT22;13225;47.804;12.116;2023-01-23T13:25:49;-1.20;99.90
25280;DHT22;13225;47.804;12.116;2023-01-23T13:28:41;-1.10;99.90
25280;DHT22;13225;47.804;12.116;2023-01-23T13:33:50;-1.10;99.90
25280;DHT22;13225;47.804;12.116;2023-01-23T13:36:21;-1.00;99.90
25280;DHT22;13225;47.804;12.116;2023-01-23T13:39:19;-0.80;99.90
25280;DHT22;13225;47.804;12.116;2023-01-23T13:44:36;-0.80;99.90
25280;DHT22;13225;47.804;12.116;2023-01-23T13:47:27;-0.70;99.90
25280;DHT22;13225;47.804;12.116;2023-01-23T13:50:19;-0.70;99.90
25280;DHT22;13225;47.804;12.116;2023-01-23T13:52:56;-0.60;99.90
25280;DHT22;13225;47.804;12.116;2023-01-23T13:55:43;-0.50;99.90
25280;DHT22;13225;47.804;12.116;2023-01-23T13:58:30;-0.60;99.90
25280;DHT22;13225;47.804;12.116;2023-01-23T14:01:09;-0.60;99.90
25280;DHT22;13225;47.804;12.116;2023-01-23T14:03:58;-0.70;99.90
25280;DHT22;13225;47.804;12.116;2023-01-23T14:06:44;-0.80;99.90
25280;DHT22;13225;47.804;12.116;2023-01-23T14:09:28;-0.70;99.90
25280;DHT22;13225;47.804;12.116;2023-01-23T14:11:58;-0.80;99.90
25280;DHT22;13225;47.804;12.116;2023-01-23T14:14:24;-0.80;99.90
25280;DHT22;13225;47.804;12.116;2023-01-23T14:17:10;-0.80;99.90
25280;DHT22;13225;47.804;12.116;2023-01-23T14:19:59;-0.80;99.90
25280;DHT22;13225;47.804;12.116;2023-01-23T14:22:27;-0.80;99.90
25280;DHT22;13225;47.804;12.116;2023-01-23T14:24:53;-0.70;99.90
25280;DHT22;13225;47.804;12.116;2023-01-23T14:27:34;-0.60;99.90
25280;DHT22;13225;47.804;12.116;2023-01-23T14:30:17;-0.70;99.90
25280;DHT22;13225;47.804;12.116;2023-01-23T14:32:44;-0.70;99.90
25280;DHT22;13225;47.804;12.116;2023-01-23T14:35:24;-0.70;99.90
25280;DHT22;13225;47.804;12.116;2023-01-23T14:37:52;-0.80;99.90
25280;DHT22;13225;47.804;12.116;2023-01-23T14:40:20;-0.70;99.90
25280;DHT22;13225;47.804;12.116;2023-01-23T14:42:58;-0.70;99.90
25280;DHT22;13225;47.804;12.116;2023-01-23T14:45:28;-0.70;99.90
25280;DHT22;13225;47.804;12.116;2023-01-23T14:47:54;-0.80;99.90
25280;DHT22;13225;47.804;12.116;2023-01-23T14:50:23;-0.80;99.90
25280;DHT22;13225;47.804;12.116;2023-01-23T14:53:05;-0.80;99.90
25280;DHT22;13225;47.804;12.116;2023-01-23T14:55:35;-0.80;99.90
25280;DHT22;13225;47.804;12.116;2023-01-23T14:58:02;-0.90;99.90
25280;DHT22;13225;47.804;12.116;2023-01-23T15:00:28;-0.80;99.90
25280;DHT22;13225;47.804;12.116;2023-01-23T15:02:54;-0.80;99.90
25280;DHT22;13225;47.804;12.116;2023-01-23T15:05:23;-0.90;99.90
25280;DHT22;13225;47.804;12.116;2023-01-23T15:10:27;-0.80;99.90
25280;DHT22;13225;47.804;12.116;2023-01-23T15:12:57;-0.80;99.90
25280;DHT22;13225;47.804;12.116;2023-01-23T15:15:25;-0.80;99.90
25280;DHT22;13225;47.804;12.116;2023-01-23T15:17:52;-0.80;99.90
25280;DHT22;13225;47.804;12.116;2023-01-23T15:22:56;-0.90;99.90
25280;DHT22;13225;47.804;12.116;2023-01-23T15:25:30;-0.80;99.90
25280;DHT22;13225;47.804;12.116;2023-01-23T15:27:57;-0.80;99.90
25280;DHT22;13225;47.804;12.116;2023-01-23T15:32:58;-0.80;99.90
25280;DHT22;13225;47.804;12.116;2023-01-23T15:35:30;-0.80;99.90
25280;DHT22;13225;47.804;12.116;2023-01-23T15:37:56;-0.80;99.90
25280;DHT22;13225;47.804;12.116;2023-01-23T15:40:30;-0.80;99.90
25280;DHT22;13225;47.804;12.116;2023-01-23T15:43:12;-0.80;99.90
25280;DHT22;13225;47.804;12.116;2023-01-23T15:45:38;-0.90;99.90
25280;DHT22;13225;47.804;12.116;2023-01-23T15:48:04;-0.90;99.90
25280;DHT22;13225;47.804;12.116;2023-01-23T15:50:30;-0.90;99.90
25280;DHT22;13225;47.804;12.116;2023-01-23T15:52:56;-0.80;99.90
25280;DHT22;13225;47.804;12.116;2023-01-23T15:55:24;-0.80;99.90
25280;DHT22;13225;47.804;12.116;2023-01-23T15:57:51;-0.90;99.90
25280;DHT22;13225;47.804;12.116;2023-01-23T16:00:20;-0.90;99.90
25280;DHT22;13225;47.804;12.116;2023-01-23T16:02:49;-0.90;99.90
25280;DHT22;13225;47.804;12.116;2023-01-23T16:05:20;-0.90;99.90
25280;DHT22;13225;47.804;12.116;2023-01-23T16:07:47;-0.90;99.90
25280;DHT22;13225;47.804;12.116;2023-01-23T16:10:22;-0.90;99.90
25280;DHT22;13225;47.804;12.116;2023-01-23T16:12:50;-0.80;99.90
25280;DHT22;13225;47.804;12.116;2023-01-23T16:15:21;-0.90;99.90
25280;DHT22;13225;47.804;12.116;2023-01-23T16:17:47;-0.80;99.90
25280;DHT22;13225;47.804;12.116;2023-01-23T16:20:15;-0.80;99.90
25280;DHT22;13225;47.804;12.116;2023-01-23T16:22:42;-0.90;99.90
25280;DHT22;13225;47.804;12.116;2023-01-23T16:25:32;-0.90;99.90
25280;DHT22;13225;47.804;12.116;2023-01-23T16:27:58;-0.90;99.90
25280;DHT22;13225;47.804;12.116;2023-01-23T16:30:25;-0.80;99.90
25280;DHT22;13225;47.804;12.116;2023-01-23T16:32:54;-0.90;99.90
25280;DHT22;13225;47.804;12.116;2023-01-23T16:35:21;-0.90;99.90
25280;DHT22;13225;47.804;12.116;2023-01-23T16:37:49;-0.90;99.90
25280;DHT22;13225;47.804;12.116;2023-01-23T16:40:21;-0.80;99.90
25280;DHT22;13225;47.804;12.116;2023-01-23T16:42:48;-0.90;99.90
25280;DHT22;13225;47.804;12.116;2023-01-23T16:45:26;-0.90;99.90
25280;DHT22;13225;47.804;12.116;2023-01-23T16:47:52;-0.90;99.90
25280;DHT22;13225;47.804;12.116;2023-01-23T16:50:21;-0.80;99.90
25280;DHT22;13225;47.804;12.116;2023-01-23T16:53:08;-0.80;99.90
25280;DHT22;13225;47.804;12.116;2023-01-23T16:55:39;-0.80;99.90
25280;DHT22;13225;47.804;12.116;2023-01-23T16:58:09;-0.80;99.90
25280;DHT22;13225;47.804;12.116;2023-01-23T17:00:39;-0.80;99.90
25280;DHT22;13225;47.804;12.116;2023-01-23T17:03:07;-0.80;99.90
25280;DHT22;13225;47.804;12.116;2023-01-23T17:05:34;-0.80;99.90
25280;DHT22;13225;47.804;12.116;2023-01-23T17:08:08;-0.80;99.90
25280;DHT22;13225;47.804;12.116;2023-01-23T17:10:37;-0.70;99.90
25280;DHT22;13225;47.804;12.116;2023-01-23T17:13:02;-0.70;99.90
25280;DHT22;13225;47.804;12.116;2023-01-23T17:15:29;-0.70;99.90
25280;DHT22;13225;47.804;12.116;2023-01-23T17:17:57;-0.70;99.90
25280;DHT22;13225;47.804;12.116;2023-01-23T17:20:25;-0.80;99.90